Main page
METAR-TAF:

METAR-TAF

Airports :

Førde Airport. Bringeland

Førde, Norway

latitude: 61-27N, longitude: 005-52E, elevation: 150 m

Current weather observation

The report was made 14 minutes ago, at 23:20 UTC
Wind 10 kt from the Northwest
Temperature 2°C
Humidity 87%
Pressure 1025 hPa
Visibility: 5000 m
light rain showers, snow

METAR: ENBL 212320Z 31010KT 5000 -SHRASN VV015 02/00 Q1025

Time: 00:34 (23:34 UTC)


TAF: missing

Weather observations and forecasts of more than 4000 airports (METAR and TAF reports).

The available stations are represented by yellow and red dots on the map.

Hover mouse over dot to see the name of the station.

Then click to see weather observations and forecasts.

To change the map : click on the green buttons with a black cross to zoom in, on the green button with a dash to zoom out, or on the green arrows for adjacent maps.


METAR-TAF: